Time;durP1;ratioP1;P1;durP2;ratioP2;P2;SDS_P1;SDS_P2;PMS_P1;PMS_P2;Temp;Humidity;BMP_temperature;BMP_pressure;BME280_temperature;BME280_humidity;BME280_pressure;Samples;Min_cycle;Max_cycle;Signal;HPM_P1;HPM_P2
2023/04/04 00:00:14;;;;;;;2.10;1.90;;;2.60;62.00;;;;;;5092297;28;20193;-80
2023/04/04 00:02:40;;;;;;;1.70;1.60;;;2.50;62.40;;;;;;5092477;28;20173;-79
2023/04/04 00:05:07;;;;;;;2.77;1.90;;;2.50;62.20;;;;;;5092281;28;20182;-79
2023/04/04 00:07:33;;;;;;;2.37;1.93;;;2.50;62.30;;;;;;5091313;28;20167;-81
2023/04/04 00:09:59;;;;;;;1.73;1.70;;;2.50;62.30;;;;;;5094297;27;20192;-79
2023/04/04 00:12:24;;;;;;;2.27;2.00;;;2.50;62.30;;;;;;5132660;27;20173;-79
2023/04/04 00:14:51;;;;;;;1.90;1.80;;;2.50;62.70;;;;;;5132590;27;20266;-79
2023/04/04 00:17:17;;;;;;;1.90;1.80;;;2.40;62.70;;;;;;5133050;27;20174;-80
2023/04/04 00:19:42;;;;;;;2.17;2.07;;;2.50;63.00;;;;;;5133664;27;20265;-81
2023/04/04 00:22:09;;;;;;;2.80;1.60;;;2.50;62.90;;;;;;5133549;28;20180;-78
2023/04/04 00:24:34;;;;;;;1.87;1.77;;;2.50;62.80;;;;;;5132792;28;20264;-79
2023/04/04 00:27:01;;;;;;;2.37;1.50;;;2.40;62.70;;;;;;5132678;27;20599;-78
2023/04/04 00:29:27;;;;;;;1.70;1.70;;;2.40;63.00;;;;;;5132891;28;20581;-79
2023/04/04 00:31:53;;;;;;;2.10;2.00;;;2.40;63.40;;;;;;5132734;28;20206;-80
2023/04/04 00:34:19;;;;;;;2.20;1.97;;;2.40;63.30;;;;;;5132807;28;20319;-79
2023/04/04 00:36:45;;;;;;;5.50;1.93;;;2.40;63.30;;;;;;5132756;28;20603;-78
2023/04/04 00:39:11;;;;;;;1.97;1.87;;;2.30;63.30;;;;;;5132637;28;20212;-79
2023/04/04 00:41:37;;;;;;;2.00;1.90;;;2.40;63.60;;;;;;5132461;28;20988;-79
2023/04/04 00:44:03;;;;;;;1.93;1.83;;;2.50;63.70;;;;;;5132612;28;20262;-79
2023/04/04 00:46:30;;;;;;;1.80;1.70;;;2.40;63.70;;;;;;5132758;28;20280;-79
2023/04/04 00:48:56;;;;;;;2.83;2.23;;;2.30;63.90;;;;;;5116533;28;20180;-79
2023/04/04 00:51:22;;;;;;;2.20;2.00;;;2.20;64.60;;;;;;5111893;28;20219;-80
2023/04/04 00:53:49;;;;;;;3.17;2.00;;;2.10;64.40;;;;;;5111689;28;20222;-79
2023/04/04 00:56:16;;;;;;;1.40;1.40;;;2.30;65.30;;;;;;5111860;28;20185;-78
2023/04/04 00:58:43;;;;;;;2.27;1.77;;;2.50;65.60;;;;;;5111958;28;20176;-79
2023/04/04 01:01:12;;;;;;;1.80;1.70;;;2.40;64.40;;;;;;5111718;28;20533;-79
2023/04/04 01:03:38;;;;;;;2.37;2.10;;;2.40;64.70;;;;;;5111957;28;20247;-79
2023/04/04 01:06:05;;;;;;;1.87;1.77;;;2.50;65.40;;;;;;5111804;28;20178;-78
2023/04/04 01:08:33;;;;;;;2.83;1.97;;;2.50;65.80;;;;;;5112122;28;20180;-80
2023/04/04 01:10:58;;;;;;;1.90;1.80;;;2.40;64.40;;;;;;5112049;28;20173;-79
2023/04/04 01:13:25;;;;;;;1.77;1.67;;;2.20;64.30;;;;;;5111930;28;20184;-80
2023/04/04 01:15:51;;;;;;;2.43;2.23;;;2.10;65.20;;;;;;5093320;28;20256;-81
2023/04/04 01:18:20;;;;;;;2.17;2.07;;;2.10;65.20;;;;;;5111861;28;20205;-80
2023/04/04 01:21:03;;;;;;;1.83;1.73;;;2.10;65.50;;;;;;5111972;28;20210;-80
2023/04/04 01:23:57;;;;;;;1.83;1.73;;;2.10;65.60;;;;;;5111971;28;20165;-81
2023/04/04 01:26:25;;;;;;;2.07;1.90;;;2.00;65.70;;;;;;5111634;28;20525;-80
2023/04/04 01:28:55;;;;;;;2.00;1.90;;;2.00;66.00;;;;;;5112147;28;20628;-80
2023/04/04 01:31:45;;;;;;;2.00;1.90;;;2.10;66.00;;;;;;5111639;28;20173;-79
2023/04/04 01:34:32;;;;;;;2.20;2.00;;;2.10;65.90;;;;;;5111246;28;20258;-80
2023/04/04 01:37:06;;;;;;;2.07;1.97;;;2.10;67.10;;;;;;5111634;28;20619;-81
2023/04/04 01:39:48;;;;;;;1.80;1.70;;;2.00;66.70;;;;;;5114714;28;20246;-80
2023/04/04 01:42:15;;;;;;;2.17;1.97;;;2.10;66.70;;;;;;5097152;28;20184;-82
2023/04/04 01:44:41;;;;;;;2.10;1.93;;;2.10;67.30;;;;;;5115371;28;20227;-80
2023/04/04 01:47:08;;;;;;;2.27;2.10;;;2.00;67.00;;;;;;5115162;28;20200;-79
2023/04/04 01:49:34;;;;;;;2.13;2.03;;;1.90;67.20;;;;;;5115148;28;20174;-79
2023/04/04 01:52:01;;;;;;;2.37;2.00;;;1.90;66.80;;;;;;5115051;28;20174;-79
2023/04/04 01:54:27;;;;;;;2.20;2.10;;;1.90;66.60;;;;;;5115026;28;20202;-80
2023/04/04 01:56:53;;;;;;;1.90;1.80;;;1.90;66.70;;;;;;5115124;28;20176;-81
2023/04/04 01:59:19;;;;;;;1.70;1.60;;;1.80;67.30;;;;;;5096973;28;20219;-78
2023/04/04 02:01:44;;;;;;;2.07;1.97;;;1.80;67.10;;;;;;5115167;28;20190;-79
2023/04/04 02:04:14;;;;;;;2.20;1.93;;;1.80;67.10;;;;;;5115008;28;20641;-79
2023/04/04 02:06:40;;;;;;;2.20;2.00;;;1.70;67.10;;;;;;5114868;28;20715;-82
2023/04/04 02:09:06;;;;;;;1.83;1.80;;;1.80;67.00;;;;;;5115675;28;20181;-80
2023/04/04 02:11:32;;;;;;;2.30;1.80;;;1.70;66.30;;;;;;5115025;28;20185;-80
2023/04/04 02:13:58;;;;;;;2.10;2.00;;;1.70;66.50;;;;;;5114506;28;20695;-80
2023/04/04 02:16:24;;;;;;;2.63;1.80;;;1.70;66.20;;;;;;5114571;28;20201;-78
2023/04/04 02:18:49;;;;;;;2.10;2.00;;;1.70;66.60;;;;;;5114595;28;20173;-80
2023/04/04 02:21:15;;;;;;;1.90;1.80;;;1.70;65.60;;;;;;5114424;28;20188;-78
2023/04/04 02:23:41;;;;;;;2.80;1.90;;;1.60;66.20;;;;;;5114568;28;20169;-80
2023/04/04 02:26:06;;;;;;;2.47;2.27;;;1.70;66.10;;;;;;5096029;28;20188;-80
2023/04/04 02:28:33;;;;;;;2.20;2.00;;;1.70;65.80;;;;;;5114562;28;20215;-80
2023/04/04 02:31:01;;;;;;;2.23;2.10;;;1.80;65.80;;;;;;5114495;28;20166;-80
2023/04/04 02:33:27;;;;;;;2.33;2.20;;;1.80;65.30;;;;;;5114325;28;20198;-81
2023/04/04 02:35:57;;;;;;;2.33;2.13;;;1.70;65.60;;;;;;5114261;28;20300;-80
2023/04/04 02:38:22;;;;;;;4.53;1.87;;;1.70;65.40;;;;;;5095854;28;20193;-80
2023/04/04 02:40:48;;;;;;;2.40;2.20;;;1.70;65.80;;;;;;5114089;28;20170;-80
2023/04/04 02:43:14;;;;;;;2.97;2.10;;;1.80;65.70;;;;;;5113988;28;20644;-80
2023/04/04 02:45:40;;;;;;;2.30;2.10;;;1.80;66.20;;;;;;5114459;28;20221;-81
2023/04/04 02:48:06;;;;;;;2.60;2.40;;;1.80;65.70;;;;;;5114340;28;20183;-79
2023/04/04 02:50:32;;;;;;;2.33;2.13;;;1.80;65.40;;;;;;5095521;28;20180;-80
2023/04/04 02:53:02;;;;;;;2.07;1.97;;;1.80;65.70;;;;;;5113949;28;20261;-79
2023/04/04 02:55:28;;;;;;;1.93;1.90;;;1.80;65.10;;;;;;5113935;28;20561;-80
2023/04/04 02:57:54;;;;;;;1.90;1.80;;;1.70;64.80;;;;;;5095398;28;20212;-79
2023/04/04 03:00:19;;;;;;;2.70;2.03;;;1.70;65.10;;;;;;5113595;28;20193;-81
2023/04/04 03:02:51;;;;;;;2.33;2.10;;;1.70;65.30;;;;;;5113849;28;20533;-79
2023/04/04 03:05:17;;;;;;;2.00;1.90;;;1.60;65.30;;;;;;5114088;28;20196;-79
2023/04/04 03:07:43;;;;;;;2.63;1.83;;;1.60;65.40;;;;;;5113621;28;20679;-81
2023/04/04 03:10:08;;;;;;;2.33;2.20;;;1.60;65.20;;;;;;5116715;27;20181;-79
2023/04/04 03:12:34;;;;;;;3.37;2.10;;;1.60;65.50;;;;;;5134264;27;20210;-79
2023/04/04 03:15:00;;;;;;;2.27;2.17;;;1.60;65.30;;;;;;5133861;27;20242;-79
2023/04/04 03:17:26;;;;;;;4.07;2.10;;;1.60;65.10;;;;;;5133959;27;20171;-79
2023/04/04 03:19:52;;;;;;;3.10;2.50;;;1.60;65.10;;;;;;5133903;27;20179;-81
2023/04/04 03:22:18;;;;;;;1.80;1.80;;;1.60;65.10;;;;;;5134004;27;20532;-79
2023/04/04 03:24:43;;;;;;;3.27;2.10;;;1.50;65.20;;;;;;5134062;27;20181;-79
2023/04/04 03:27:10;;;;;;;2.00;1.90;;;1.60;64.80;;;;;;5133941;27;20180;-81
2023/04/04 03:29:35;;;;;;;2.17;2.07;;;1.50;65.00;;;;;;5133838;27;20175;-80
2023/04/04 03:32:01;;;;;;;2.50;2.17;;;1.50;64.80;;;;;;5134173;27;20213;-81
2023/04/04 03:34:27;;;;;;;2.53;2.33;;;1.50;64.40;;;;;;5133652;27;20250;-80
2023/04/04 03:36:53;;;;;;;2.57;2.37;;;1.50;64.00;;;;;;5133635;27;20213;-81
2023/04/04 03:39:19;;;;;;;2.20;2.10;;;1.60;64.50;;;;;;5133862;27;20175;-81
2023/04/04 03:41:45;;;;;;;2.10;2.00;;;1.50;64.40;;;;;;5133384;27;20179;-78
2023/04/04 03:44:10;;;;;;;2.27;2.10;;;1.60;64.30;;;;;;5133821;27;20518;-78
2023/04/04 03:46:36;;;;;;;2.10;2.00;;;1.50;64.00;;;;;;5133584;27;20634;-81
2023/04/04 03:49:02;;;;;;;2.17;2.03;;;1.50;64.10;;;;;;5115033;27;20177;-80
2023/04/04 03:51:28;;;;;;;3.40;1.90;;;1.50;64.20;;;;;;5133289;27;20704;-80
2023/04/04 03:53:55;;;;;;;1.80;1.70;;;1.40;63.70;;;;;;5133578;27;20259;-78
2023/04/04 03:56:21;;;;;;;2.23;2.03;;;1.40;63.70;;;;;;5133351;27;20209;-81
2023/04/04 03:58:47;;;;;;;2.90;2.20;;;1.40;63.70;;;;;;5133696;27;20532;-81
2023/04/04 04:01:12;;;;;;;2.23;2.13;;;1.40;63.70;;;;;;5132725;27;20176;-81
2023/04/04 04:03:38;;;;;;;1.90;1.80;;;1.50;63.50;;;;;;5133338;27;20175;-80
2023/04/04 04:06:04;;;;;;;1.90;1.90;;;1.40;63.40;;;;;;5133253;27;20178;-81
2023/04/04 04:08:30;;;;;;;2.07;1.97;;;1.40;62.90;;;;;;5133045;27;20906;-81
2023/04/04 04:11:02;;;;;;;2.30;2.20;;;1.40;63.20;;;;;;5123146;27;20181;-80
2023/04/04 04:13:28;;;;;;;2.40;2.30;;;1.40;62.70;;;;;;5094265;28;20206;-79
2023/04/04 04:15:55;;;;;;;3.03;2.23;;;1.50;63.00;;;;;;5094468;28;20207;-78
2023/04/04 04:18:20;;;;;;;3.97;2.23;;;1.50;62.70;;;;;;5094345;28;20182;-81
2023/04/04 04:20:46;;;;;;;1.90;1.80;;;1.40;62.90;;;;;;5112540;28;20177;-79
2023/04/04 04:23:12;;;;;;;2.40;2.20;;;1.40;62.60;;;;;;5112460;28;20173;-78
2023/04/04 04:25:38;;;;;;;2.00;1.90;;;1.40;63.00;;;;;;5094185;28;20669;-81
2023/04/04 04:28:03;;;;;;;2.10;2.00;;;1.40;62.50;;;;;;5094306;28;20234;-77
2023/04/04 04:30:29;;;;;;;2.30;2.10;;;1.30;62.50;;;;;;5111921;28;20175;-78
2023/04/04 04:32:56;;;;;;;2.73;2.13;;;1.30;62.40;;;;;;5112456;28;20857;-80
2023/04/04 04:35:21;;;;;;;2.20;2.00;;;1.40;62.50;;;;;;5112581;28;20219;-80
2023/04/04 04:37:47;;;;;;;2.80;2.20;;;1.50;62.20;;;;;;5112399;28;20629;-79
2023/04/04 04:40:13;;;;;;;2.50;2.40;;;1.50;62.10;;;;;;5093628;28;20325;-78
2023/04/04 04:42:45;;;;;;;5.20;2.43;;;1.50;61.70;;;;;;5112374;28;20182;-78
2023/04/04 04:45:11;;;;;;;2.43;2.33;;;1.50;61.80;;;;;;5112474;28;20176;-79
2023/04/04 04:47:37;;;;;;;2.20;2.10;;;1.50;61.80;;;;;;5112401;28;20183;-80
2023/04/04 04:50:03;;;;;;;2.50;2.30;;;1.50;62.10;;;;;;5112031;28;20198;-79
2023/04/04 04:52:30;;;;;;;2.07;1.97;;;1.50;61.90;;;;;;5112663;28;20251;-79
2023/04/04 04:54:56;;;;;;;2.40;2.23;;;1.50;62.50;;;;;;5112277;28;20699;-81
2023/04/04 04:57:22;;;;;;;2.30;2.20;;;1.50;62.40;;;;;;5094202;28;20182;-80
2023/04/04 04:59:48;;;;;;;2.60;2.50;;;1.40;63.20;;;;;;5093618;28;20183;-80
2023/04/04 05:02:15;;;;;;;6.03;3.63;;;1.40;63.90;;;;;;5112434;28;20174;-81
2023/04/04 05:04:43;;;;;;;5.70;3.43;;;1.50;64.50;;;;;;5112213;28;20184;-79
2023/04/04 05:07:11;;;;;;;4.90;3.10;;;1.50;64.80;;;;;;5112180;28;20261;-81
2023/04/04 05:09:37;;;;;;;3.53;2.77;;;1.60;64.30;;;;;;5093361;28;20195;-81
2023/04/04 05:12:03;;;;;;;2.50;2.40;;;1.60;64.00;;;;;;5131456;27;20172;-81
2023/04/04 05:14:29;;;;;;;4.60;3.00;;;1.60;64.80;;;;;;5135667;27;20231;-79
2023/04/04 05:16:55;;;;;;;3.53;3.10;;;1.60;64.30;;;;;;5136581;27;20173;-80
2023/04/04 05:19:21;;;;;;;2.83;2.63;;;1.60;64.40;;;;;;5136272;27;20168;-78
2023/04/04 05:21:47;;;;;;;9.07;3.37;;;1.70;64.00;;;;;;5136292;27;20159;-80
2023/04/04 05:24:13;;;;;;;5.33;2.93;;;1.70;64.30;;;;;;5136399;27;20192;-80
2023/04/04 05:26:38;;;;;;;5.33;3.60;;;1.70;63.90;;;;;;5136417;27;20165;-79
2023/04/04 05:29:04;;;;;;;3.20;2.70;;;1.70;64.00;;;;;;5136183;27;20179;-79
2023/04/04 05:31:30;;;;;;;3.83;2.73;;;1.70;64.30;;;;;;5136164;27;20179;-80
2023/04/04 05:33:56;;;;;;;4.17;2.63;;;1.80;64.20;;;;;;5136296;27;20215;-81
2023/04/04 05:36:22;;;;;;;3.07;2.83;;;1.90;64.50;;;;;;5136380;27;20203;-80
2023/04/04 05:38:47;;;;;;;2.63;2.37;;;1.80;64.10;;;;;;5136431;27;20176;-80
2023/04/04 05:41:13;;;;;;;2.77;2.57;;;1.80;63.20;;;;;;5136441;27;20169;-79
2023/04/04 05:43:39;;;;;;;4.90;3.10;;;1.80;63.90;;;;;;5136318;27;20168;-79
2023/04/04 05:46:05;;;;;;;3.13;2.50;;;1.80;64.30;;;;;;5136282;27;20182;-81
2023/04/04 05:48:31;;;;;;;2.70;2.50;;;1.90;64.40;;;;;;5136999;27;20175;-81
2023/04/04 05:50:56;;;;;;;4.10;2.33;;;1.90;63.90;;;;;;5136373;27;20568;-79
2023/04/04 05:53:22;;;;;;;2.77;2.50;;;2.00;63.00;;;;;;5136246;27;20170;-79
2023/04/04 05:55:54;;;;;;;2.60;2.40;;;2.00;63.40;;;;;;5117504;27;20604;-79
2023/04/04 05:58:20;;;;;;;4.03;2.53;;;2.00;64.40;;;;;;5117615;27;20264;-80
2023/04/04 06:00:45;;;;;;;2.60;2.40;;;2.10;63.90;;;;;;5135365;27;20268;-79
2023/04/04 06:03:11;;;;;;;2.17;2.07;;;2.30;63.30;;;;;;5135776;27;20175;-78
2023/04/04 06:05:37;;;;;;;2.03;1.93;;;2.30;61.60;;;;;;5135687;27;20480;-81
2023/04/04 06:08:02;;;;;;;2.47;2.27;;;2.30;61.30;;;;;;5135917;27;20677;-79
2023/04/04 06:10:28;;;;;;;2.40;2.30;;;2.40;61.20;;;;;;5129773;27;20181;-82
2023/04/04 06:12:54;;;;;;;1.70;1.70;;;2.30;59.50;;;;;;5115278;28;20177;-81
2023/04/04 06:15:20;;;;;;;1.57;1.57;;;2.30;59.30;;;;;;5114712;28;20243;-80
2023/04/04 06:17:45;;;;;;;1.87;1.77;;;2.30;58.90;;;;;;5096514;28;20266;-80
2023/04/04 06:20:11;;;;;;;2.03;1.93;;;2.20;58.90;;;;;;5114557;28;20691;-79
2023/04/04 06:22:37;;;;;;;2.13;1.90;;;2.20;58.70;;;;;;5115090;28;20169;-81
2023/04/04 06:25:03;;;;;;;1.50;1.50;;;2.20;58.60;;;;;;5114692;28;20173;-79
2023/04/04 06:27:29;;;;;;;1.97;1.87;;;2.30;58.40;;;;;;5114906;28;20567;-79
2023/04/04 06:29:54;;;;;;;1.53;1.53;;;2.30;58.70;;;;;;5114715;28;20178;-81
2023/04/04 06:32:21;;;;;;;2.17;2.07;;;2.40;58.40;;;;;;5114601;28;20752;-79
2023/04/04 06:34:46;;;;;;;2.00;1.90;;;2.50;58.40;;;;;;5096383;28;20668;-79
2023/04/04 06:37:12;;;;;;;1.90;1.80;;;2.50;58.60;;;;;;5114546;28;20172;-79
2023/04/04 06:39:38;;;;;;;1.97;1.87;;;2.50;58.30;;;;;;5095878;28;20183;-79
2023/04/04 06:42:04;;;;;;;1.97;1.87;;;2.50;58.60;;;;;;5114443;28;20174;-79
2023/04/04 06:44:30;;;;;;;2.00;1.90;;;2.60;58.20;;;;;;5096374;28;20188;-79
2023/04/04 06:46:56;;;;;;;1.73;1.63;;;2.70;58.00;;;;;;5114952;28;20506;-80
2023/04/04 06:49:22;;;;;;;1.90;1.80;;;2.70;57.60;;;;;;5096121;28;20182;-80
2023/04/04 06:51:50;;;;;;;2.00;1.90;;;2.80;57.30;;;;;;5095480;28;20537;-80
2023/04/04 06:54:17;;;;;;;2.13;2.03;;;2.70;57.70;;;;;;5095791;28;20706;-79
2023/04/04 06:56:42;;;;;;;1.70;1.70;;;2.70;57.30;;;;;;5095661;28;20635;-81
2023/04/04 06:59:11;;;;;;;1.70;1.67;;;2.70;57.30;;;;;;5095864;28;20206;-80
2023/04/04 07:01:36;;;;;;;1.83;1.73;;;2.80;57.00;;;;;;5095301;28;20177;-80
2023/04/04 07:04:04;;;;;;;1.80;1.70;;;2.80;56.90;;;;;;5095379;28;20185;-80
2023/04/04 07:06:32;;;;;;;1.93;1.70;;;2.80;56.90;;;;;;5078661;28;20193;-81
2023/04/04 07:08:58;;;;;;;4.10;2.03;;;2.80;56.90;;;;;;5095574;28;20184;-80
2023/04/04 07:11:24;;;;;;;1.93;1.83;;;2.90;57.10;;;;;;5108137;27;20230;-80
2023/04/04 07:13:50;;;;;;;1.87;1.77;;;2.90;56.90;;;;;;5115280;27;20229;-81
2023/04/04 07:16:15;;;;;;;1.40;1.40;;;3.00;57.20;;;;;;5115659;27;20686;-81
2023/04/04 07:18:43;;;;;;;1.97;1.87;;;3.20;57.30;;;;;;5115901;27;20195;-80
2023/04/04 07:21:08;;;;;;;1.60;1.50;;;3.40;56.50;;;;;;5115845;27;20200;-80
2023/04/04 07:23:35;;;;;;;1.90;1.80;;;3.30;56.10;;;;;;5116058;27;20178;-81
2023/04/04 07:26:01;;;;;;;2.43;2.30;;;3.30;56.40;;;;;;5115842;27;20177;-79
2023/04/04 07:28:27;;;;;;;2.10;1.90;;;3.40;56.80;;;;;;5115775;27;20284;-81
2023/04/04 07:30:52;;;;;;;1.60;1.60;;;3.60;56.40;;;;;;5115529;27;20314;-80
2023/04/04 07:33:18;;;;;;;1.80;1.70;;;3.80;56.10;;;;;;5134291;27;20528;-78
2023/04/04 07:35:44;;;;;;;1.80;1.70;;;3.90;56.00;;;;;;5133486;27;20289;-81
2023/04/04 07:38:10;;;;;;;2.00;1.90;;;3.80;55.80;;;;;;5134303;27;20749;-82
2023/04/04 07:40:35;;;;;;;1.67;1.67;;;3.90;56.00;;;;;;5115524;27;20177;-80
2023/04/04 07:43:01;;;;;;;1.70;1.60;;;4.00;55.70;;;;;;5133661;27;20201;-79
2023/04/04 07:45:27;;;;;;;1.67;1.57;;;4.00;55.50;;;;;;5134147;27;20256;-77
2023/04/04 07:47:53;;;;;;;2.27;1.87;;;4.00;55.80;;;;;;5133704;27;20177;-80
2023/04/04 07:50:18;;;;;;;1.90;1.80;;;4.00;55.50;;;;;;5133664;27;20223;-79
2023/04/04 07:52:53;;;;;;;2.10;1.63;;;4.10;55.50;;;;;;5133324;27;20175;-80
2023/04/04 07:55:19;;;;;;;5.37;2.03;;;4.10;55.00;;;;;;5133392;27;20204;-81
2023/04/04 07:57:45;;;;;;;2.13;2.03;;;4.10;55.10;;;;;;5133376;27;20671;-79
2023/04/04 08:00:12;;;;;;;1.80;1.70;;;4.00;54.90;;;;;;5133531;27;20171;-80
2023/04/04 08:02:38;;;;;;;1.90;1.80;;;4.00;55.20;;;;;;5133396;27;20202;-81
2023/04/04 08:05:04;;;;;;;1.73;1.63;;;4.10;55.50;;;;;;5133450;27;20215;-81
2023/04/04 08:07:30;;;;;;;1.90;1.80;;;4.10;55.50;;;;;;5133479;27;20278;-80
2023/04/04 08:09:55;;;;;;;1.80;1.70;;;4.10;55.50;;;;;;5132914;27;20249;-79
2023/04/04 08:12:21;;;;;;;1.90;1.80;;;4.20;55.60;;;;;;5133091;27;20169;-80
2023/04/04 08:14:47;;;;;;;3.40;1.70;;;4.40;55.10;;;;;;5132976;27;20255;-81
2023/04/04 08:17:17;;;;;;;1.63;1.63;;;4.50;55.40;;;;;;5133248;27;20205;-81
2023/04/04 08:19:43;;;;;;;1.70;1.67;;;4.70;55.20;;;;;;5114434;27;20168;-80
2023/04/04 08:22:09;;;;;;;2.00;1.90;;;4.80;53.40;;;;;;5114605;27;20177;-81
2023/04/04 08:24:36;;;;;;;1.60;1.60;;;4.80;53.20;;;;;;5133346;27;20651;-83
2023/04/04 08:27:03;;;;;;;1.80;1.70;;;4.80;54.20;;;;;;5115077;28;20219;-80
2023/04/04 08:29:31;;;;;;;1.90;1.80;;;4.90;54.40;;;;;;5124877;28;20541;-81
2023/04/04 08:31:57;;;;;;;1.60;1.50;;;4.90;53.00;;;;;;5112100;28;20637;-78
2023/04/04 08:34:23;;;;;;;1.87;1.77;;;5.00;53.00;;;;;;5112484;28;20252;-80
2023/04/04 08:36:48;;;;;;;2.23;1.93;;;5.20;52.70;;;;;;5112413;28;20186;-79
2023/04/04 08:39:14;;;;;;;1.87;1.77;;;5.20;52.50;;;;;;5112741;28;20547;-79
2023/04/04 08:41:44;;;;;;;1.40;1.40;;;5.30;51.80;;;;;;5112187;28;20177;-79
2023/04/04 08:44:16;;;;;;;1.90;1.80;;;5.20;51.80;;;;;;5112603;28;20637;-81
2023/04/04 08:46:44;;;;;;;1.90;1.80;;;5.20;52.20;;;;;;5112827;28;20160;-80
2023/04/04 08:49:12;;;;;;;1.60;1.60;;;5.30;52.90;;;;;;5098575;28;20535;-79
2023/04/04 08:51:39;;;;;;;3.00;1.90;;;5.20;53.00;;;;;;5116589;28;20167;-81
2023/04/04 08:54:06;;;;;;;3.27;2.00;;;5.10;53.60;;;;;;5116632;28;20177;-80
2023/04/04 08:56:34;;;;;;;2.10;1.80;;;5.10;53.50;;;;;;5116338;28;20655;-78
2023/04/04 08:59:00;;;;;;;2.00;1.90;;;5.10;53.20;;;;;;5098073;28;20264;-80
2023/04/04 09:01:28;;;;;;;1.37;1.37;;;5.00;52.90;;;;;;5116268;28;20759;-81
2023/04/04 09:03:56;;;;;;;1.53;1.53;;;5.00;53.30;;;;;;5116227;28;20650;-81
2023/04/04 09:06:23;;;;;;;1.83;1.73;;;5.10;53.20;;;;;;5116386;28;20246;-82
2023/04/04 09:08:52;;;;;;;1.43;1.37;;;5.10;52.20;;;;;;5097903;28;20197;-80
2023/04/04 09:11:22;;;;;;;1.40;1.40;;;5.20;52.30;;;;;;5116377;28;20175;-79
2023/04/04 09:13:50;;;;;;;1.90;1.80;;;5.30;52.30;;;;;;5115853;28;20231;-81
2023/04/04 09:16:16;;;;;;;2.03;1.90;;;5.50;52.80;;;;;;5116102;28;20259;-81
2023/04/04 09:18:42;;;;;;;1.70;1.33;;;5.60;52.20;;;;;;5116456;28;20170;-81
2023/04/04 09:21:10;;;;;;;1.77;1.67;;;5.50;49.80;;;;;;5115992;28;20185;-79
2023/04/04 09:23:37;;;;;;;1.60;1.50;;;5.50;49.50;;;;;;5115953;28;20231;-80
2023/04/04 09:26:03;;;;;;;1.30;1.30;;;5.50;49.20;;;;;;5116113;28;20175;-81
2023/04/04 09:28:30;;;;;;;2.20;1.50;;;5.50;49.40;;;;;;5116452;28;20184;-82
2023/04/04 09:30:58;;;;;;;2.30;1.33;;;5.60;48.70;;;;;;5116369;28;20621;-81
2023/04/04 09:33:25;;;;;;;1.70;1.60;;;5.50;49.10;;;;;;5116209;28;20635;-82
2023/04/04 09:35:54;;;;;;;1.80;1.70;;;5.60;51.20;;;;;;5097624;28;20681;-80
2023/04/04 09:38:25;;;;;;;1.50;1.40;;;5.60;52.10;;;;;;5097607;28;20625;-80
2023/04/04 09:40:51;;;;;;;1.97;1.73;;;5.70;52.20;;;;;;5097832;28;20177;-80
2023/04/04 09:43:21;;;;;;;1.73;1.63;;;5.70;51.70;;;;;;5097721;28;20269;-81
2023/04/04 09:45:48;;;;;;;2.10;2.00;;;5.70;52.60;;;;;;5098370;28;20170;-80
2023/04/04 09:48:31;;;;;;;1.90;1.80;;;5.80;51.90;;;;;;5116159;28;20199;-79
2023/04/04 09:50:58;;;;;;;2.63;1.80;;;5.70;51.50;;;;;;5115335;28;20187;-81
2023/04/04 09:53:24;;;;;;;1.70;1.60;;;5.90;52.40;;;;;;5115411;28;20181;-78
2023/04/04 09:55:54;;;;;;;1.67;1.57;;;5.90;52.30;;;;;;5115538;28;20287;-81
2023/04/04 09:58:27;;;;;;;1.97;1.87;;;6.00;51.70;;;;;;5115169;28;20161;-80
2023/04/04 10:00:56;;;;;;;1.50;1.50;;;6.00;51.30;;;;;;5115847;28;20159;-81
2023/04/04 10:03:23;;;;;;;1.43;1.40;;;5.90;52.20;;;;;;5120087;28;20162;-79
2023/04/04 10:06:09;;;;;;;5.40;1.97;;;5.90;52.20;;;;;;5117492;28;20177;-80
2023/04/04 10:08:39;;;;;;;2.00;1.90;;;5.90;51.80;;;;;;5115634;28;20185;-79
2023/04/04 10:11:05;;;;;;;1.60;1.57;;;5.80;51.70;;;;;;5114782;28;20215;-81
2023/04/04 10:13:40;;;;;;;1.80;1.70;;;5.80;52.30;;;;;;5115729;28;20273;-82
2023/04/04 10:16:07;;;;;;;1.93;1.80;;;5.90;52.70;;;;;;5096917;28;20614;-82
2023/04/04 10:18:34;;;;;;;1.60;1.50;;;6.00;52.30;;;;;;5115037;28;20176;-80
2023/04/04 10:21:07;;;;;;;2.27;1.50;;;5.90;50.80;;;;;;5114701;28;20176;-79
2023/04/04 10:23:34;;;;;;;1.70;1.60;;;6.00;51.70;;;;;;5114978;28;20631;-78
2023/04/04 10:26:00;;;;;;;1.40;1.40;;;6.10;51.70;;;;;;5114938;28;20184;-81
2023/04/04 10:28:27;;;;;;;1.90;1.80;;;6.10;52.00;;;;;;5114628;28;20198;-79
2023/04/04 10:31:01;;;;;;;1.47;1.43;;;6.10;51.60;;;;;;5114736;28;20173;-79
2023/04/04 10:33:36;;;;;;;1.77;1.50;;;6.20;51.70;;;;;;5114741;28;20177;-81
2023/04/04 10:36:06;;;;;;;1.80;1.70;;;6.20;51.70;;;;;;5096107;28;20229;-80
2023/04/04 10:38:40;;;;;;;4.20;1.90;;;6.20;50.70;;;;;;5114323;28;20555;-81
2023/04/04 10:41:07;;;;;;;1.70;1.60;;;6.20;51.00;;;;;;5114481;28;20158;-81
2023/04/04 10:43:42;;;;;;;1.40;1.40;;;6.10;50.30;;;;;;5114505;28;20166;-81
2023/04/04 10:46:12;;;;;;;1.80;1.70;;;6.10;50.80;;;;;;5114227;28;20227;-80
2023/04/04 10:48:40;;;;;;;1.90;1.80;;;6.10;50.70;;;;;;5114065;28;20521;-80
2023/04/04 10:51:06;;;;;;;1.40;1.40;;;6.00;50.80;;;;;;5114068;28;20170;-81
2023/04/04 10:53:34;;;;;;;1.63;1.60;;;6.10;51.60;;;;;;5114355;28;20181;-81
2023/04/04 10:56:01;;;;;;;3.47;1.63;;;6.30;51.10;;;;;;5113993;28;20207;-81
2023/04/04 10:58:28;;;;;;;1.83;1.73;;;6.40;51.60;;;;;;5114214;28;20206;-79
2023/04/04 11:00:55;;;;;;;1.53;1.43;;;6.40;51.00;;;;;;5113903;28;20647;-79
2023/04/04 11:03:21;;;;;;;1.43;1.43;;;6.40;51.00;;;;;;5113972;28;20248;-79
2023/04/04 11:05:48;;;;;;;1.33;1.33;;;6.50;51.40;;;;;;5113913;28;20176;-79
2023/04/04 11:08:19;;;;;;;1.60;1.50;;;6.60;50.90;;;;;;5112022;28;20240;-80
2023/04/04 11:10:49;;;;;;;2.53;1.60;;;6.60;51.00;;;;;;5113975;28;20234;-78
2023/04/04 11:13:25;;;;;;;1.40;1.40;;;6.70;50.50;;;;;;5113556;28;20176;-81
2023/04/04 11:16:06;;;;;;;1.07;1.07;;;6.70;49.80;;;;;;5113699;28;20760;-79
2023/04/04 11:18:31;;;;;;;2.00;1.47;;;6.80;50.00;;;;;;5113702;28;20150;-80
2023/04/04 11:21:01;;;;;;;1.70;1.60;;;6.70;49.30;;;;;;5114250;28;20181;-81
2023/04/04 11:23:57;;;;;;;4.07;1.77;;;6.70;48.80;;;;;;5095479;28;20181;-81
2023/04/04 11:26:31;;;;;;;1.77;1.63;;;6.80;48.90;;;;;;5113570;28;20176;-80
2023/04/04 11:29:02;;;;;;;1.60;1.50;;;6.90;49.40;;;;;;5094894;28;20169;-80
2023/04/04 11:31:47;;;;;;;1.57;1.47;;;7.00;48.00;;;;;;5112738;28;20194;-78
2023/04/04 11:34:31;;;;;;;1.57;1.57;;;7.00;47.10;;;;;;5095228;28;20187;-79
2023/04/04 11:37:00;;;;;;;1.60;1.40;;;7.10;48.00;;;;;;5094860;28;20186;-80
2023/04/04 11:39:33;;;;;;;1.50;1.47;;;7.00;48.30;;;;;;5078565;28;20188;-82
2023/04/04 11:42:12;;;;;;;1.83;1.73;;;6.90;47.30;;;;;;5113280;28;20157;-81
2023/04/04 11:45:01;;;;;;;1.60;1.50;;;6.90;47.00;;;;;;5095118;28;20304;-79
2023/04/04 11:47:28;;;;;;;1.40;1.40;;;6.90;46.50;;;;;;5113436;28;20170;-80
2023/04/04 11:49:55;;;;;;;1.40;1.40;;;6.80;46.40;;;;;;5113298;28;20278;-79
2023/04/04 11:52:22;;;;;;;1.47;1.37;;;6.80;46.40;;;;;;5112915;28;20224;-79
2023/04/04 11:54:49;;;;;;;1.70;1.60;;;6.90;46.60;;;;;;5113025;28;20195;-80
2023/04/04 11:57:16;;;;;;;1.60;1.57;;;7.10;45.90;;;;;;5112861;28;20715;-79
2023/04/04 11:59:47;;;;;;;1.43;1.43;;;7.10;44.80;;;;;;5113237;28;20168;-81
2023/04/04 12:02:18;;;;;;;1.50;1.40;;;7.20;45.20;;;;;;5094743;28;20171;-81
2023/04/04 12:04:45;;;;;;;1.10;1.10;;;7.20;45.10;;;;;;5094619;28;20183;-80
2023/04/04 12:07:12;;;;;;;1.20;1.20;;;7.20;44.10;;;;;;5112621;28;20258;-81
2023/04/04 12:09:39;;;;;;;1.30;1.30;;;7.20;44.20;;;;;;5094560;28;20172;-81
2023/04/04 12:12:06;;;;;;;1.90;1.80;;;7.30;44.50;;;;;;5094382;28;20184;-80
2023/04/04 12:14:33;;;;;;;1.73;1.63;;;7.40;45.30;;;;;;5112456;28;20635;-80
2023/04/04 12:17:00;;;;;;;1.80;1.70;;;7.40;46.60;;;;;;5112931;28;20655;-80
2023/04/04 12:19:27;;;;;;;1.50;1.40;;;7.50;46.40;;;;;;5093282;28;20641;-80
2023/04/04 12:21:53;;;;;;;2.30;2.20;;;7.50;46.90;;;;;;5093984;28;20256;-80
2023/04/04 12:24:21;;;;;;;1.70;1.60;;;7.50;46.90;;;;;;5112564;28;20612;-80
2023/04/04 12:26:48;;;;;;;1.43;1.43;;;7.40;46.30;;;;;;5112542;28;20166;-81
2023/04/04 12:29:16;;;;;;;1.37;1.37;;;7.50;45.90;;;;;;5094296;28;20581;-80
2023/04/04 12:31:45;;;;;;;1.17;1.17;;;7.30;45.90;;;;;;5077391;28;20219;-80
2023/04/04 12:34:30;;;;;;;1.77;1.30;;;7.40;46.00;;;;;;5112633;28;20167;-80
2023/04/04 12:36:57;;;;;;;1.80;1.70;;;7.30;46.10;;;;;;5112751;28;20180;-81
2023/04/04 12:39:27;;;;;;;1.80;1.70;;;7.40;47.10;;;;;;5112702;28;20536;-79
2023/04/04 12:42:02;;;;;;;1.30;1.20;;;7.50;45.40;;;;;;5094386;28;20179;-79
2023/04/04 12:44:34;;;;;;;1.80;1.40;;;7.60;45.50;;;;;;5124577;28;20172;-80
2023/04/04 12:47:02;;;;;;;1.27;1.23;;;7.70;46.00;;;;;;5095297;28;20183;-80
2023/04/04 12:49:38;;;;;;;1.30;1.30;;;7.70;45.50;;;;;;5113299;28;20172;-81
2023/04/04 12:52:06;;;;;;;1.27;1.27;;;7.60;45.60;;;;;;5094422;28;20173;-81
2023/04/04 12:54:34;;;;;;;1.37;1.27;;;7.70;44.90;;;;;;5094193;28;20180;-80
2023/04/04 12:57:06;;;;;;;1.70;1.60;;;7.80;45.10;;;;;;5112633;28;20185;-80
2023/04/04 12:59:33;;;;;;;1.50;1.40;;;8.00;45.10;;;;;;5112444;28;20203;-80